Time;durP1;ratioP1;P1;durP2;ratioP2;P2;SDS_P1;SDS_P2;PMS_P1;PMS_P2;Temp;Humidity;BMP_temperature;BMP_pressure;BME280_temperature;BME280_humidity;BME280_pressure;Samples;Min_cycle;Max_cycle;Signal;HPM_P1;HPM_P2
2022/07/18 00:02:06;;;;;;;;;4.75;3.25;;;28.76;98542.69;;;;119091;1187;25796;-69
2022/07/18 00:04:34;;;;;;;;;3.75;3.75;;;28.72;98543.02;;;;119101;1189;25259;-69
2022/07/18 00:07:02;;;;;;;;;5.00;2.00;;;28.68;98542.41;;;;119077;1188;25130;-69
2022/07/18 00:09:30;;;;;;;;;3.00;3.00;;;28.67;98541.39;;;;119074;1188;26391;-70
2022/07/18 00:12:04;;;;;;;;;4.00;3.00;;;28.68;98542.13;;;;119049;1188;25828;-69
2022/07/18 00:14:34;;;;;;;;;1.75;1.75;;;28.67;98539.96;;;;118992;1190;25040;-69
2022/07/18 00:17:03;;;;;;;;;2.75;2.75;;;28.65;98539.27;;;;119017;1188;25455;-69
2022/07/18 00:19:31;;;;;;;;;3.00;3.00;;;28.67;98539.55;;;;118994;1189;25675;-69
2022/07/18 00:21:59;;;;;;;;;2.00;2.00;;;28.65;98538.48;;;;119007;1189;26032;-69
2022/07/18 00:24:27;;;;;;;;;3.00;3.00;;;28.65;98541.93;;;;119062;1187;24818;-70
2022/07/18 00:26:55;;;;;;;;;4.00;3.00;;;28.65;98544.33;;;;119034;1189;25923;-69
2022/07/18 00:29:23;;;;;;;;;2.00;2.00;;;28.65;98544.75;;;;119034;1189;25167;-70
2022/07/18 00:31:51;;;;;;;;;2.75;2.75;;;28.68;98548.19;;;;119002;1189;25302;-69
2022/07/18 00:34:19;;;;;;;;;2.50;2.50;;;28.68;98550.77;;;;119009;1188;25508;-69
2022/07/18 00:36:47;;;;;;;;;3.00;3.00;;;28.67;98550.08;;;;119082;1187;25275;-69
2022/07/18 00:39:15;;;;;;;;;2.25;2.00;;;28.66;98550.70;;;;119063;1189;25244;-69
2022/07/18 00:41:49;;;;;;;;;3.00;3.00;;;28.64;98550.41;;;;119027;1189;24971;-68
2022/07/18 00:44:22;;;;;;;;;3.25;2.25;;;28.67;98550.59;;;;119126;1188;25988;-69
2022/07/18 00:46:52;;;;;;;;;2.50;2.00;;;28.70;98546.63;;;;119095;1187;26228;-69
2022/07/18 00:49:20;;;;;;;;;3.00;3.00;;;28.67;98546.58;;;;119084;1187;25769;-69
2022/07/18 00:51:48;;;;;;;;;3.50;2.25;;;28.67;98541.31;;;;118983;1190;24804;-69
2022/07/18 00:54:17;;;;;;;;;2.25;2.25;;;28.69;98542.77;;;;119014;1189;25147;-70
2022/07/18 00:56:45;;;;;;;;;2.00;2.00;;;28.68;98540.91;;;;118895;1191;26351;-70
2022/07/18 00:59:13;;;;;;;;;2.00;2.00;;;28.71;98541.76;;;;118952;1189;26303;-69
2022/07/18 01:01:47;;;;;;;;;5.75;4.00;;;28.71;98544.39;;;;119014;1189;25776;-69
2022/07/18 01:04:21;;;;;;;;;3.00;3.00;;;28.72;98544.86;;;;119019;1190;26536;-69
2022/07/18 01:06:51;;;;;;;;;3.50;2.75;;;28.72;98544.64;;;;119106;1187;25139;-69
2022/07/18 01:09:19;;;;;;;;;2.00;2.00;;;28.73;98545.95;;;;118963;1188;25726;-68
2022/07/18 01:11:48;;;;;;;;;3.00;3.00;;;28.75;98546.81;;;;118980;1190;25986;-69
2022/07/18 01:14:16;;;;;;;;;2.50;2.50;;;28.72;98547.52;;;;119009;1190;25435;-68
2022/07/18 01:16:44;;;;;;;;;3.00;3.00;;;28.66;98543.94;;;;118911;1191;25056;-69
2022/07/18 01:19:12;;;;;;;;;3.00;2.75;;;28.62;98545.59;;;;118985;1190;24753;-69
2022/07/18 01:21:40;;;;;;;;;3.00;3.00;;;28.59;98544.14;;;;119035;1189;25109;-69
2022/07/18 01:24:08;;;;;;;;;1.50;1.50;;;28.60;98543.95;;;;119003;1187;24763;-69
2022/07/18 01:26:36;;;;;;;;;3.00;3.00;;;28.54;98541.05;;;;119001;1190;25304;-69
2022/07/18 01:29:04;;;;;;;;;4.00;4.00;;;28.50;98538.78;;;;119014;1190;24895;-70
2022/07/18 01:31:33;;;;;;;;;1.00;1.00;;;28.48;98539.25;;;;118999;1189;26346;-68
2022/07/18 01:34:02;;;;;;;;;3.00;2.00;;;28.48;98538.67;;;;119056;1186;25515;-70
2022/07/18 01:36:31;;;;;;;;;2.75;2.75;;;28.47;98537.63;;;;119006;1190;24969;-69
2022/07/18 01:39:00;;;;;;;;;3.00;3.00;;;28.41;98536.34;;;;118980;1190;24992;-69
2022/07/18 01:41:27;;;;;;;;;3.00;3.00;;;28.37;98538.48;;;;118976;1189;25386;-70
2022/07/18 01:43:55;;;;;;;;;3.00;3.00;;;28.32;98543.70;;;;118992;1190;24756;-69
2022/07/18 01:46:23;;;;;;;;;3.00;3.00;;;28.33;98543.77;;;;119077;1188;26759;-69
2022/07/18 01:48:51;;;;;;;;;3.50;3.50;;;28.32;98548.11;;;;119060;1187;25167;-68
2022/07/18 01:51:19;;;;;;;;;3.00;3.00;;;28.28;98549.50;;;;118963;1190;26096;-69
2022/07/18 01:53:55;;;;;;;;;4.00;4.00;;;28.26;98551.27;;;;119017;1190;25359;-68
2022/07/18 01:56:23;;;;;;;;;3.50;2.50;;;28.31;98549.63;;;;118985;1189;25340;-70
2022/07/18 01:58:51;;;;;;;;;2.00;2.00;;;28.24;98550.92;;;;119133;1188;26265;-69
2022/07/18 02:01:18;;;;;;;;;4.75;3.00;;;28.23;98550.63;;;;119128;1189;25790;-69
2022/07/18 02:03:46;;;;;;;;;2.67;2.67;;;28.19;98550.70;;;;118945;1190;26089;-70
2022/07/18 02:06:14;;;;;;;;;3.00;3.00;;;28.20;98553.14;;;;119001;1189;25441;-69
2022/07/18 02:08:42;;;;;;;;;2.75;2.75;;;28.12;98552.98;;;;118906;1191;25816;-71
2022/07/18 02:11:10;;;;;;;;;4.00;2.00;;;28.07;98552.47;;;;118923;1190;24785;-70
2022/07/18 02:13:38;;;;;;;;;3.00;3.00;;;28.05;98552.40;;;;118995;1189;25185;-70
2022/07/18 02:16:07;;;;;;;;;2.75;2.75;;;28.04;98553.35;;;;119027;1190;25541;-69
2022/07/18 02:18:35;;;;;;;;;3.25;3.25;;;28.06;98554.48;;;;118992;1189;24755;-69
2022/07/18 02:21:09;;;;;;;;;4.25;3.00;;;28.03;98552.95;;;;119059;1189;25206;-69
2022/07/18 02:23:38;;;;;;;;;2.75;2.75;;;28.02;98555.63;;;;119077;1189;25605;-71
2022/07/18 02:26:06;;;;;;;;;3.00;3.00;;;27.98;98556.73;;;;119058;1187;24934;-69
2022/07/18 02:28:34;;;;;;;;;2.50;2.50;;;27.98;98556.30;;;;119057;1189;25989;-69
2022/07/18 02:31:03;;;;;;;;;2.25;2.25;;;27.96;98556.37;;;;119005;1189;25041;-69
2022/07/18 02:33:32;;;;;;;;;3.00;2.25;;;27.91;98563.48;;;;119008;1189;24868;-70
2022/07/18 02:36:01;;;;;;;;;3.00;3.00;;;27.91;98565.55;;;;119007;1189;25640;-70
2022/07/18 02:38:29;;;;;;;;;3.67;3.67;;;27.91;98570.30;;;;118993;1190;24984;-70
2022/07/18 02:40:57;;;;;;;;;3.00;2.75;;;27.90;98573.26;;;;119045;1187;25672;-70
2022/07/18 02:43:25;;;;;;;;;3.00;3.00;;;27.85;98573.92;;;;119098;1187;25385;-70
2022/07/18 02:45:53;;;;;;;;;4.00;4.00;;;27.86;98573.77;;;;119114;1188;25623;-69
2022/07/18 02:48:21;;;;;;;;;3.75;3.75;;;27.82;98574.05;;;;118987;1189;24968;-70
2022/07/18 02:50:49;;;;;;;;;4.25;3.50;;;27.79;98574.77;;;;119013;1189;24690;-70
2022/07/18 02:53:19;;;;;;;;;2.75;2.75;;;27.75;98578.86;;;;119191;1188;24900;-71
2022/07/18 02:55:47;;;;;;;;;4.25;4.00;;;27.78;98577.55;;;;119110;1187;24980;-70
2022/07/18 02:58:14;;;;;;;;;3.00;3.00;;;27.71;98580.42;;;;119007;1189;25442;-70
2022/07/18 03:00:43;;;;;;;;;5.00;3.00;;;27.69;98582.21;;;;119126;1187;25782;-68
2022/07/18 03:03:11;;;;;;;;;6.50;5.75;;;27.69;98583.80;;;;119018;1190;25542;-68
2022/07/18 03:05:38;;;;;;;;;5.00;5.00;;;27.67;98584.81;;;;119015;1189;24973;-70
2022/07/18 03:08:06;;;;;;;;;4.00;4.00;;;27.69;98588.66;;;;118995;1189;25055;-70
2022/07/18 03:10:34;;;;;;;;;10.25;7.50;;;27.67;98588.69;;;;119004;1190;25609;-69
2022/07/18 03:13:02;;;;;;;;;6.25;6.25;;;27.69;98588.73;;;;118916;1190;26146;-69
2022/07/18 03:15:30;;;;;;;;;8.00;7.00;;;27.68;98591.92;;;;118996;1189;25077;-70
2022/07/18 03:17:58;;;;;;;;;6.25;4.00;;;27.77;98592.60;;;;118982;1190;25470;-70
2022/07/18 03:20:25;;;;;;;;;4.50;4.50;;;27.73;98594.02;;;;118984;1190;25309;-69
2022/07/18 03:22:53;;;;;;;;;4.25;4.00;;;27.78;98594.45;;;;119002;1189;25947;-69
2022/07/18 03:25:21;;;;;;;;;5.00;5.00;;;27.78;98593.19;;;;119086;1187;26454;-68
2022/07/18 03:27:49;;;;;;;;;4.75;3.75;;;27.82;98594.36;;;;119016;1188;26278;-69
2022/07/18 03:30:17;;;;;;;;;4.50;4.00;;;27.84;98597.16;;;;119018;1189;24947;-68
2022/07/18 03:32:44;;;;;;;;;5.00;4.50;;;27.88;98595.84;;;;118989;1190;25314;-69
2022/07/18 03:35:12;;;;;;;;;2.75;2.75;;;27.91;98597.38;;;;118970;1189;25163;-68
2022/07/18 03:37:40;;;;;;;;;4.75;4.75;;;27.93;98599.45;;;;119050;1186;26282;-68
2022/07/18 03:40:09;;;;;;;;;5.75;3.00;;;27.98;98604.63;;;;118954;1190;25022;-66
2022/07/18 03:42:38;;;;;;;;;3.00;3.00;;;28.10;98603.98;;;;119048;1188;25114;-66
2022/07/18 03:45:07;;;;;;;;;4.00;3.00;;;28.00;98604.86;;;;118973;1189;25767;-67
2022/07/18 03:47:35;;;;;;;;;5.25;3.75;;;28.02;98606.64;;;;119070;1188;25227;-68
2022/07/18 03:50:04;;;;;;;;;3.00;3.00;;;28.06;98604.06;;;;118995;1189;25681;-69
2022/07/18 03:52:32;;;;;;;;;4.75;4.75;;;28.07;98609.33;;;;119066;1187;25170;-68
2022/07/18 03:55:01;;;;;;;;;3.00;3.00;;;28.10;98609.64;;;;119049;1188;25145;-67
2022/07/18 03:57:29;;;;;;;;;4.00;4.00;;;28.15;98608.83;;;;118997;1190;24897;-72
2022/07/18 03:59:57;;;;;;;;;3.00;3.00;;;28.16;98611.20;;;;118966;1190;24826;-66
2022/07/18 04:02:25;;;;;;;;;3.00;3.00;;;28.20;98612.84;;;;118995;1189;25728;-69
2022/07/18 04:04:52;;;;;;;;;4.50;2.75;;;28.21;98611.88;;;;118982;1189;25183;-70
2022/07/18 04:07:20;;;;;;;;;2.00;2.00;;;28.23;98611.94;;;;118982;1190;25669;-69
2022/07/18 04:09:48;;;;;;;;;3.25;2.75;;;28.26;98613.48;;;;118970;1189;26176;-66
2022/07/18 04:12:16;;;;;;;;;3.75;3.75;;;28.28;98614.10;;;;118962;1190;25353;-66
2022/07/18 04:14:43;;;;;;;;;3.67;3.00;;;28.31;98617.03;;;;118971;1189;25615;-68
2022/07/18 04:17:11;;;;;;;;;3.00;3.00;;;28.33;98618.05;;;;118963;1190;25073;-67
2022/07/18 04:19:39;;;;;;;;;3.50;3.00;;;28.34;98618.66;;;;118992;1189;25197;-69
2022/07/18 04:22:07;;;;;;;;;5.00;3.50;;;28.33;98618.55;;;;119072;1189;24989;-68
2022/07/18 04:24:34;;;;;;;;;6.50;5.50;;;28.37;98614.58;;;;119065;1188;24754;-68
2022/07/18 04:27:02;;;;;;;;;2.00;2.00;;;28.39;98615.70;;;;119003;1189;25367;-68
2022/07/18 04:29:31;;;;;;;;;4.50;4.00;;;28.40;98617.76;;;;119094;1188;25800;-68
2022/07/18 04:31:59;;;;;;;;;6.50;5.25;;;28.41;98614.93;;;;119029;1188;25742;-68
2022/07/18 04:34:27;;;;;;;;;6.00;6.00;;;28.45;98612.68;;;;119015;1188;25353;-68
2022/07/18 04:36:55;;;;;;;;;10.00;4.75;;;28.49;98615.38;;;;118985;1188;25513;-68
2022/07/18 04:39:23;;;;;;;;;9.50;7.00;;;28.51;98616.09;;;;118961;1188;25093;-73
2022/07/18 04:41:51;;;;;;;;;8.25;7.00;;;28.54;98615.31;;;;119022;1189;24721;-66
2022/07/18 04:44:18;;;;;;;;;8.00;6.00;;;28.64;98613.81;;;;119295;1190;24914;-66
2022/07/18 04:46:46;;;;;;;;;7.00;6.25;;;29.15;98615.60;;;;119000;1189;25033;-66
2022/07/18 04:49:14;;;;;;;;;11.33;9.67;;;29.07;98613.64;;;;118990;1190;25434;-66
2022/07/18 04:51:42;;;;;;;;;7.00;5.00;;;28.93;98611.33;;;;118967;1190;24757;-67
2022/07/18 04:54:12;;;;;;;;;10.25;8.00;;;28.85;98614.05;;;;118985;1190;24787;-66
2022/07/18 04:56:40;;;;;;;;;11.50;8.25;;;28.79;98612.10;;;;118989;1190;25786;-66
2022/07/18 04:59:07;;;;;;;;;9.75;8.25;;;28.75;98609.83;;;;118971;1190;25022;-67
2022/07/18 05:01:35;;;;;;;;;10.50;7.00;;;28.71;98606.52;;;;119366;1189;24935;-66
2022/07/18 05:04:03;;;;;;;;;10.50;7.50;;;29.23;98600.27;;;;119426;1190;24844;-66
2022/07/18 05:06:31;;;;;;;;;10.00;5.25;;;29.67;98603.75;;;;119434;1189;25391;-67
2022/07/18 05:08:59;;;;;;;;;11.25;8.75;;;30.04;98604.05;;;;119414;1190;25182;-66
2022/07/18 05:11:27;;;;;;;;;9.50;6.25;;;30.30;98603.75;;;;119448;1190;25640;-67
2022/07/18 05:13:55;;;;;;;;;14.25;6.25;;;30.51;98605.98;;;;119149;1188;25234;-67
2022/07/18 05:16:23;;;;;;;;;9.50;5.00;;;30.31;98606.69;;;;118987;1190;25970;-67
2022/07/18 05:18:51;;;;;;;;;13.00;8.75;;;29.89;98608.00;;;;119011;1189;24751;-66
2022/07/18 05:21:19;;;;;;;;;10.25;7.75;;;29.58;98607.02;;;;118983;1190;24823;-67
2022/07/18 05:23:47;;;;;;;;;10.50;8.00;;;29.38;98607.23;;;;118988;1188;25419;-67
2022/07/18 05:26:15;;;;;;;;;14.25;9.75;;;29.24;98611.70;;;;119031;1190;24808;-67
2022/07/18 05:28:43;;;;;;;;;11.00;8.50;;;29.13;98613.25;;;;118963;1190;24952;-67
2022/07/18 05:31:11;;;;;;;;;7.75;4.50;;;29.03;98608.94;;;;119013;1189;25344;-68
2022/07/18 05:33:39;;;;;;;;;11.25;8.50;;;28.95;98606.85;;;;119000;1190;25479;-67
2022/07/18 05:36:09;;;;;;;;;10.00;7.50;;;28.90;98608.06;;;;118998;1189;26138;-67
2022/07/18 05:38:36;;;;;;;;;8.50;7.25;;;28.86;98609.80;;;;118998;1189;25569;-67
2022/07/18 05:41:05;;;;;;;;;9.75;5.00;;;28.83;98609.92;;;;119079;1187;25781;-69
2022/07/18 05:43:33;;;;;;;;;6.00;4.75;;;28.81;98606.41;;;;119144;1187;25723;-68
2022/07/18 05:46:01;;;;;;;;;11.33;6.33;;;28.77;98607.03;;;;119134;1188;25864;-68
2022/07/18 05:48:29;;;;;;;;;7.75;6.00;;;28.74;98608.86;;;;119131;1188;25819;-68
2022/07/18 05:50:57;;;;;;;;;7.50;5.50;;;28.71;98611.65;;;;119121;1188;24780;-68
2022/07/18 05:53:25;;;;;;;;;9.00;6.00;;;28.69;98610.31;;;;119006;1189;25457;-69
2022/07/18 05:55:53;;;;;;;;;5.50;4.00;;;28.67;98609.72;;;;119094;1187;25290;-67
2022/07/18 05:58:21;;;;;;;;;9.75;6.25;;;28.65;98608.27;;;;119123;1188;25171;-67
2022/07/18 06:00:49;;;;;;;;;9.75;8.50;;;28.64;98605.56;;;;119020;1190;25369;-66
2022/07/18 06:03:16;;;;;;;;;8.25;6.00;;;28.63;98606.70;;;;119020;1189;24856;-68
2022/07/18 06:05:44;;;;;;;;;4.50;4.00;;;28.63;98608.16;;;;119139;1187;25744;-65
2022/07/18 06:08:12;;;;;;;;;7.33;6.67;;;28.63;98607.77;;;;119076;1188;25708;-68
2022/07/18 06:10:40;;;;;;;;;8.00;6.25;;;28.62;98605.88;;;;119110;1188;25123;-66
2022/07/18 06:13:13;;;;;;;;;8.00;7.00;;;28.62;98605.94;;;;119186;1188;25117;-66
2022/07/18 06:15:41;;;;;;;;;8.50;8.50;;;28.62;98603.45;;;;119209;1187;24914;-66
2022/07/18 06:18:09;;;;;;;;;5.00;5.00;;;28.62;98601.30;;;;119208;1187;25526;-65
2022/07/18 06:20:37;;;;;;;;;8.50;5.25;;;28.62;98600.39;;;;119194;1188;26076;-66
2022/07/18 06:23:05;;;;;;;;;5.00;4.00;;;28.60;98597.58;;;;119199;1188;25858;-70
2022/07/18 06:25:32;;;;;;;;;4.50;3.50;;;28.59;98597.63;;;;119186;1188;25326;-65
2022/07/18 06:28:00;;;;;;;;;7.00;6.00;;;28.58;98596.71;;;;119177;1187;24884;-66
2022/07/18 06:30:28;;;;;;;;;3.25;3.25;;;28.59;98594.73;;;;119181;1187;24770;-67
2022/07/18 06:32:56;;;;;;;;;5.50;5.50;;;28.59;98595.55;;;;119181;1187;24801;-65
2022/07/18 06:35:24;;;;;;;;;6.00;4.00;;;28.58;98594.38;;;;118973;1189;25089;-66
2022/07/18 06:37:51;;;;;;;;;5.00;4.50;;;28.58;98595.15;;;;119155;1187;25001;-66
2022/07/18 06:40:19;;;;;;;;;9.00;5.75;;;28.56;98594.84;;;;119157;1187;25513;-65
2022/07/18 06:42:47;;;;;;;;;5.50;5.00;;;28.56;98596.46;;;;119147;1187;25698;-64
2022/07/18 06:45:15;;;;;;;;;5.00;5.00;;;28.57;98595.65;;;;119144;1187;25487;-65
2022/07/18 06:47:43;;;;;;;;;5.50;5.25;;;28.56;98594.09;;;;118968;1189;25589;-66
2022/07/18 06:50:12;;;;;;;;;5.50;5.50;;;28.57;98591.13;;;;119158;1188;24909;-66
2022/07/18 06:52:42;;;;;;;;;5.25;4.25;;;28.58;98588.70;;;;119126;1187;25535;-66
2022/07/18 06:55:11;;;;;;;;;5.00;5.00;;;28.59;98589.37;;;;119085;1188;24978;-66
2022/07/18 06:57:41;;;;;;;;;5.75;4.50;;;28.60;98587.98;;;;119171;1188;25146;-67
2022/07/18 07:00:10;;;;;;;;;3.50;3.00;;;28.60;98585.61;;;;118993;1190;26378;-67
2022/07/18 07:02:44;;;;;;;;;4.00;4.00;;;28.60;98584.49;;;;119156;1188;25634;-66
2022/07/18 07:05:13;;;;;;;;;4.75;4.25;;;28.60;98584.40;;;;119150;1187;25146;-68
2022/07/18 07:07:42;;;;;;;;;3.25;2.75;;;28.59;98587.80;;;;119155;1187;25192;-67
2022/07/18 07:10:17;;;;;;;;;5.00;4.00;;;28.60;98589.13;;;;119144;1188;25349;-68
2022/07/18 07:12:49;;;;;;;;;5.33;4.33;;;28.60;98588.27;;;;119009;1189;26196;-68
2022/07/18 07:15:19;;;;;;;;;4.25;4.25;;;28.59;98588.61;;;;119150;1187;26006;-67
2022/07/18 07:17:47;;;;;;;;;4.75;4.00;;;28.59;98586.87;;;;119001;1189;25611;-67
2022/07/18 07:20:18;;;;;;;;;4.25;3.50;;;28.59;98587.29;;;;119151;1187;25721;-66
2022/07/18 07:22:57;;;;;;;;;3.50;3.00;;;28.60;98582.64;;;;119132;1187;25546;-64
2022/07/18 07:25:25;;;;;;;;;8.00;4.00;;;28.65;98583.60;;;;118933;1189;25666;-65
2022/07/18 07:27:54;;;;;;;;;3.00;3.00;;;28.64;98585.20;;;;119166;1188;25903;-65
2022/07/18 07:30:22;;;;;;;;;3.75;3.75;;;28.62;98587.31;;;;119151;1187;25653;-65
2022/07/18 07:32:51;;;;;;;;;4.75;3.75;;;28.60;98581.52;;;;119031;1188;25229;-66
2022/07/18 07:35:20;;;;;;;;;4.67;4.67;;;28.60;98578.71;;;;119004;1189;25732;-65
2022/07/18 07:37:51;;;;;;;;;5.00;4.00;;;28.59;98579.79;;;;119006;1190;25818;-65
2022/07/18 07:40:21;;;;;;;;;4.25;4.25;;;28.59;98579.69;;;;118992;1189;25415;-73
2022/07/18 07:42:49;;;;;;;;;1.00;1.00;;;28.59;98575.06;;;;118999;1190;24945;-64
2022/07/18 07:45:17;;;;;;;;;8.25;5.50;;;28.58;98567.88;;;;118994;1189;25043;-65
2022/07/18 07:47:45;;;;;;;;;3.75;3.75;;;28.58;98567.49;;;;119042;1190;24754;-65
2022/07/18 07:50:13;;;;;;;;;2.67;2.67;;;28.65;98569.81;;;;119151;1186;25107;-65
2022/07/18 07:52:41;;;;;;;;;5.00;3.50;;;28.65;98568.26;;;;118984;1190;26216;-65
2022/07/18 07:55:09;;;;;;;;;6.00;4.33;;;28.64;98565.73;;;;119167;1188;25069;-65
2022/07/18 07:57:37;;;;;;;;;3.50;3.50;;;28.63;98563.17;;;;118990;1189;25402;-69
2022/07/18 08:00:08;;;;;;;;;4.00;3.75;;;28.63;98563.77;;;;119001;1187;25409;-64
2022/07/18 08:02:36;;;;;;;;;4.25;3.50;;;28.66;98566.77;;;;119096;1187;25081;-65
2022/07/18 08:05:07;;;;;;;;;6.75;4.25;;;28.75;98571.00;;;;119051;1187;24869;-80
2022/07/18 08:07:35;;;;;;;;;4.50;4.25;;;28.70;98574.66;;;;118899;1189;25499;-73
2022/07/18 08:10:03;;;;;;;;;2.75;2.75;;;28.57;98575.61;;;;119136;1186;25500;-74
2022/07/18 08:12:37;;;;;;;;;7.50;4.00;;;28.37;98574.85;;;;118954;1188;25554;-73
2022/07/18 08:15:05;;;;;;;;;6.50;5.00;;;28.39;98571.55;;;;118924;1188;25250;-74
2022/07/18 08:17:33;;;;;;;;;5.00;3.25;;;28.37;98576.39;;;;119127;1186;26054;-72
2022/07/18 08:20:01;;;;;;;;;4.00;4.00;;;28.32;98576.30;;;;118952;1187;25204;-73
2022/07/18 08:22:29;;;;;;;;;4.25;4.25;;;28.34;98576.88;;;;119100;1187;25626;-73
2022/07/18 08:24:56;;;;;;;;;3.25;3.25;;;28.36;98575.18;;;;119061;1188;25677;-71
2022/07/18 08:27:24;;;;;;;;;5.00;5.00;;;28.30;98576.11;;;;119092;1186;25291;-72
2022/07/18 08:29:52;;;;;;;;;6.50;5.25;;;28.31;98575.59;;;;119142;1188;25283;-69
2022/07/18 08:32:35;;;;;;;;;4.50;4.50;;;28.31;98574.68;;;;119116;1187;25313;-69
2022/07/18 08:35:03;;;;;;;;;4.00;4.00;;;28.34;98573.55;;;;119099;1188;24726;-73
2022/07/18 08:37:31;;;;;;;;;5.50;5.50;;;28.30;98575.60;;;;118962;1189;28182;-63
2022/07/18 08:39:59;;;;;;;;;6.50;4.00;;;28.35;98572.89;;;;119129;1186;25397;-66
2022/07/18 08:42:28;;;;;;;;;5.00;4.00;;;28.26;98569.67;;;;119156;1187;25646;-66
2022/07/18 08:44:56;;;;;;;;;3.50;1.75;;;28.23;98563.38;;;;119122;1187;24945;-64
2022/07/18 08:47:26;;;;;;;;;3.25;3.25;;;28.25;98560.83;;;;119149;1187;25315;-63
2022/07/18 08:49:58;;;;;;;;;7.25;5.00;;;28.22;98559.10;;;;118973;1189;25662;-74
2022/07/18 08:52:28;;;;;;;;;4.50;4.50;;;28.17;98558.70;;;;118849;1190;25119;-72
2022/07/18 08:55:16;;;;;;;;;7.50;4.50;;;28.31;98556.50;;;;119106;1186;25061;-72
2022/07/18 08:57:53;;;;;;;;;5.75;4.00;;;28.39;98558.69;;;;119106;1188;25632;-70
2022/07/18 09:00:22;;;;;;;;;4.25;4.25;;;28.31;98557.89;;;;119132;1187;25218;-68
2022/07/18 09:02:59;;;;;;;;;5.00;3.50;;;28.28;98553.46;;;;119132;1188;26424;-71
2022/07/18 09:05:28;;;;;;;;;4.75;3.50;;;28.24;98554.56;;;;118890;1189;24865;-70
2022/07/18 09:08:11;;;;;;;;;3.25;3.25;;;28.33;98555.52;;;;119010;1189;25749;-68
2022/07/18 09:10:54;;;;;;;;;3.50;3.00;;;28.43;98553.55;;;;118972;1187;25233;-71
2022/07/18 09:13:43;;;;;;;;;4.75;3.00;;;28.41;98553.98;;;;118893;1189;25869;-72
2022/07/18 09:16:13;;;;;;;;;6.50;3.00;;;28.45;98549.47;;;;119101;1188;24768;-72
2022/07/18 09:18:46;;;;;;;;;4.75;4.00;;;28.49;98552.20;;;;118928;1189;26372;-69
2022/07/18 09:21:18;;;;;;;;;7.25;4.00;;;28.53;98550.27;;;;119150;1186;24860;-68
2022/07/18 09:23:52;;;;;;;;;2.50;2.00;;;28.42;98548.80;;;;119135;1188;24965;-65
2022/07/18 09:26:41;;;;;;;;;2.00;2.00;;;28.34;98551.36;;;;118964;1190;25037;-67
2022/07/18 09:29:14;;;;;;;;;2.75;2.75;;;28.29;98547.15;;;;119163;1188;24929;-68
2022/07/18 09:31:54;;;;;;;;;3.25;3.25;;;28.22;98542.93;;;;119156;1187;24859;-66
2022/07/18 09:34:36;;;;;;;;;4.00;4.00;;;28.31;98540.02;;;;118999;1188;24943;-68
2022/07/18 09:37:10;;;;;;;;;4.00;4.00;;;28.37;98532.84;;;;118900;1190;24879;-65
2022/07/18 09:39:38;;;;;;;;;3.75;3.25;;;28.30;98540.08;;;;119158;1187;25191;-69
2022/07/18 09:42:14;;;;;;;;;3.00;2.00;;;28.34;98535.88;;;;118978;1189;24667;-67
2022/07/18 09:44:42;;;;;;;;;4.00;4.00;;;28.35;98531.72;;;;119174;1187;25484;-66
2022/07/18 09:47:10;;;;;;;;;3.00;3.00;;;28.40;98528.23;;;;119235;1186;25442;-67
2022/07/18 09:49:40;;;;;;;;;3.00;3.00;;;28.49;98528.27;;;;119212;1187;25421;-66
2022/07/18 09:52:10;;;;;;;;;5.50;4.50;;;28.40;98526.73;;;;118956;1189;26022;-71
2022/07/18 09:54:43;;;;;;;;;4.00;4.00;;;28.39;98524.86;;;;119200;1187;25321;-74
2022/07/18 09:57:23;;;;;;;;;2.00;2.00;;;28.45;98524.65;;;;118984;1187;25036;-63
2022/07/18 09:59:52;;;;;;;;;2.00;2.00;;;28.54;98523.43;;;;119221;1187;25390;-67
2022/07/18 10:02:20;;;;;;;;;3.25;3.25;;;28.42;98525.42;;;;119010;1187;24694;-68
2022/07/18 10:04:49;;;;;;;;;2.50;2.50;;;28.44;98528.20;;;;119215;1186;25436;-72
2022/07/18 10:07:17;;;;;;;;;2.50;2.00;;;28.35;98523.21;;;;119163;1188;24997;-72
2022/07/18 10:09:45;;;;;;;;;2.00;2.00;;;28.34;98522.95;;;;119211;1187;25337;-71
2022/07/18 10:12:15;;;;;;;;;4.00;2.00;;;28.35;98517.20;;;;119008;1188;25312;-71
2022/07/18 10:14:43;;;;;;;;;2.00;1.75;;;28.39;98517.52;;;;118909;1188;24822;-66
2022/07/18 10:17:11;;;;;;;;;3.67;2.67;;;28.42;98522.80;;;;119207;1187;25175;-65
2022/07/18 10:19:40;;;;;;;;;1.25;1.25;;;28.38;98518.60;;;;119212;1187;25183;-66
2022/07/18 10:22:07;;;;;;;;;2.00;2.00;;;28.39;98514.48;;;;119202;1186;25083;-71
2022/07/18 10:24:39;;;;;;;;;3.00;3.00;;;28.36;98510.41;;;;118967;1188;25811;-66
2022/07/18 10:27:13;;;;;;;;;3.00;3.00;;;28.35;98513.34;;;;118965;1189;25647;-65
2022/07/18 10:30:11;;;;;;;;;3.25;2.25;;;28.39;98507.52;;;;118990;1189;25305;-70
2022/07/18 10:32:39;;;;;;;;;3.50;3.00;;;28.65;98500.35;;;;119175;1188;25382;-65
2022/07/18 10:35:10;;;;;;;;;2.00;1.50;;;28.58;98488.87;;;;119186;1188;25600;-65
2022/07/18 10:37:39;;;;;;;;;2.00;2.00;;;28.55;98498.72;;;;119170;1187;27009;-68
2022/07/18 10:40:28;;;;;;;;;3.75;3.00;;;28.55;98502.46;;;;119166;1187;25928;-68
2022/07/18 10:43:30;;;;;;;;;3.50;3.00;;;28.57;98498.76;;;;119176;1187;25293;-65
2022/07/18 10:45:59;;;;;;;;;4.00;3.00;;;28.59;98494.94;;;;119221;1186;25409;-59
2022/07/18 10:48:33;;;;;;;;;2.75;2.75;;;28.54;98494.27;;;;119239;1187;25704;-61
2022/07/18 10:51:08;;;;;;;;;5.50;2.50;;;28.50;98484.88;;;;119204;1188;25360;-61
2022/07/18 10:54:01;;;;;;;;;4.50;4.25;;;28.50;98490.42;;;;119193;1188;25666;-61
2022/07/18 10:56:29;;;;;;;;;8.50;8.50;;;28.56;98482.84;;;;119165;1187;25308;-67
2022/07/18 10:58:58;;;;;;;;;8.00;7.75;;;28.51;98478.03;;;;119187;1188;25751;-67
2022/07/18 11:01:26;;;;;;;;;17.50;12.50;;;28.49;98472.61;;;;118991;1188;24881;-66
2022/07/18 11:04:23;;;;;;;;;17.25;15.00;;;28.53;98471.98;;;;119178;1187;25380;-67
2022/07/18 11:07:15;;;;;;;;;11.50;8.50;;;28.60;98474.73;;;;118901;1189;25559;-67
2022/07/18 11:09:47;;;;;;;;;15.00;10.33;;;28.71;98482.77;;;;119137;1187;25458;-64
2022/07/18 11:12:26;;;;;;;;;5.25;5.25;;;28.64;98483.10;;;;119170;1188;25355;-68
2022/07/18 11:15:13;;;;;;;;;4.25;3.00;;;28.72;98481.48;;;;119178;1186;25371;-66
2022/07/18 11:17:58;;;;;;;;;3.25;3.25;;;28.74;98474.50;;;;119047;1187;25291;-64
2022/07/18 11:20:36;;;;;;;;;7.00;6.00;;;28.88;98469.10;;;;119180;1186;24725;-67
2022/07/18 11:23:23;;;;;;;;;4.75;4.25;;;28.85;98478.68;;;;119191;1187;25063;-67
2022/07/18 11:25:58;;;;;;;;;11.25;10.00;;;28.83;98467.51;;;;118949;1189;25603;-65
2022/07/18 11:28:27;;;;;;;;;19.50;17.50;;;28.80;98463.64;;;;119172;1187;26074;-64
2022/07/18 11:31:06;;;;;;;;;16.25;12.75;;;28.78;98459.35;;;;119154;1187;25681;-73
2022/07/18 11:33:38;;;;;;;;;9.75;8.00;;;28.80;98459.90;;;;119213;1188;25705;-68
2022/07/18 11:36:08;;;;;;;;;7.50;7.00;;;28.92;98459.15;;;;119203;1186;24971;-69
2022/07/18 11:38:46;;;;;;;;;3.75;3.75;;;28.96;98458.80;;;;119155;1188;24894;-67
2022/07/18 11:41:14;;;;;;;;;2.50;2.00;;;28.95;98458.20;;;;118966;1189;26221;-68
2022/07/18 11:43:47;;;;;;;;;2.75;1.50;;;28.99;98457.11;;;;119201;1187;25390;-68
2022/07/18 11:46:17;;;;;;;;;3.50;2.00;;;29.00;98450.09;;;;119205;1186;25435;-74
2022/07/18 11:48:47;;;;;;;;;4.33;4.00;;;29.00;98452.76;;;;119140;1188;25392;-70
2022/07/18 11:51:18;;;;;;;;;5.00;5.00;;;29.02;98450.09;;;;118973;1188;24942;-76
2022/07/18 11:53:49;;;;;;;;;5.75;5.75;;;29.07;98451.39;;;;118911;1189;25204;-74
2022/07/18 11:56:20;;;;;;;;;6.25;6.25;;;29.15;98446.02;;;;118948;1189;25358;-77
2022/07/18 11:58:49;;;;;;;;;5.00;5.00;;;29.09;98447.20;;;;119166;1187;25072;-74
2022/07/18 12:01:17;;;;;;;;;4.25;4.00;;;29.22;98441.62;;;;119162;1188;25007;-73
2022/07/18 12:03:48;;;;;;;;;4.00;4.00;;;29.18;98439.71;;;;118961;1189;25292;-75
2022/07/18 12:06:27;;;;;;;;;3.25;3.25;;;29.21;98435.47;;;;118963;1188;25546;-78
2022/07/18 12:09:06;;;;;;;;;5.00;4.00;;;29.25;98429.16;;;;118948;1188;25136;-75
2022/07/18 12:11:35;;;;;;;;;3.50;3.50;;;29.33;98425.15;;;;118930;1190;25455;-65
2022/07/18 12:14:15;;;;;;;;;4.50;3.00;;;29.37;98435.93;;;;119152;1187;25462;-66
2022/07/18 12:16:46;;;;;;;;;3.00;3.00;;;29.30;98434.23;;;;119128;1187;25355;-66
2022/07/18 12:19:23;;;;;;;;;3.25;3.25;;;29.26;98425.07;;;;119145;1188;25460;-75
2022/07/18 12:21:53;;;;;;;;;6.00;3.25;;;29.30;98428.92;;;;118982;1189;25259;-73